Aviation Digital Data Service (ADDS)

Output produced by TAFs form (0002 UTC 01 July 2015)
found at http://www.aviationweather.gov/adds/tafs/
 
KMRB 302331Z 0100/0124 18006KT P6SM VCTS BKN050CB 
     FM010300 VRB05KT P6SM -SHRA VCTS BKN050CB 
     FM010600 VRB03KT P6SM SCT080 
     FM011400 26008KT P6SM SCT050